SBJU/JDO METAR and TAF weather

Enter ICAO airport designator
Station Type Date Time Source
SBJU METAR 2020/11/25 21:00 UTC NOAA

SBJU 252100Z 18006KT 9999 BKN022 31/14 Q1014


Station Type Date Time Source
SBJU Decoded METAR 2020/11/25 21:00 UTC NOAA

Station name not available
Nov 25, 2020 - 04:00 PM EST / 2020.11.25 2100 UTC
Wind: from the S (180 degrees) at 7 MPH (6 KT):0
Visibility: greater than 7 mile(s):0
Sky conditions: mostly cloudy
Temperature: 87 F (31 C)
Dew Point: 57 F (14 C)
Relative Humidity: 35%
Pressure (altimeter): 29.94 in. Hg (1014 hPa)
ob: SBJU 252100Z 18006KT 9999 BKN022 31/14 Q1014
cycle: 21

Station Type Date Time Source
SBJU TAF 2011/11/01 00:05 UTC NOAA

TAF SBJU 012200Z 0200/0212 00000KT 9999 SCT020 TX28/0200Z TN24/0207Z
BECMG 0210/0212 06005KT
RMK PCE

Example: see airport list